Time;durP1;ratioP1;P1;durP2;ratioP2;P2;SDS_P1;SDS_P2;PMS_P1;PMS_P2;Temp;Humidity;BMP_temperature;BMP_pressure;BME280_temperature;BME280_humidity;BME280_pressure;Samples;Min_cycle;Max_cycle;Signal;HPM_P1;HPM_P2
2021/05/05 00:00:22;;;;;;;8.63;2.38;;;;;;;14.88;50.11;93569.31;5121394;27;20402;-71
2021/05/05 00:02:48;;;;;;;4.55;2.75;;;;;;;14.91;51.25;93571.28;5116668;28;20022;-71
2021/05/05 00:05:14;;;;;;;8.07;3.08;;;;;;;14.91;50.59;93568.63;5129903;28;20019;-71
2021/05/05 00:07:41;;;;;;;11.13;3.38;;;;;;;14.93;51.01;93571.72;5123053;27;20023;-71
2021/05/05 00:10:07;;;;;;;5.07;2.85;;;;;;;14.96;51.52;93568.38;5130149;28;20034;-72
2021/05/05 00:12:34;;;;;;;6.07;2.80;;;;;;;14.99;50.93;93575.72;5127388;27;20034;-71
2021/05/05 00:15:00;;;;;;;7.63;3.00;;;;;;;15.00;51.38;93566.53;5130085;28;20037;-71
2021/05/05 00:17:25;;;;;;;6.72;2.92;;;;;;;14.96;51.09;93560.31;5118845;28;20088;-71
2021/05/05 00:19:51;;;;;;;7.05;2.60;;;;;;;14.95;51.28;93558.75;5125470;27;20106;-71
2021/05/05 00:22:16;;;;;;;4.75;2.25;;;;;;;14.96;50.04;93543.41;5125987;27;20418;-71
2021/05/05 00:24:42;;;;;;;8.02;2.28;;;;;;;14.93;49.77;93552.94;5127124;27;20032;-71
2021/05/05 00:27:08;;;;;;;5.40;2.10;;;;;;;14.93;49.52;93544.91;5124768;27;20531;-71
2021/05/05 00:29:33;;;;;;;7.68;2.67;;;;;;;14.96;48.03;93549.59;5123542;27;20106;-71
2021/05/05 00:31:59;;;;;;;10.38;2.15;;;;;;;14.92;47.75;93538.00;5127066;27;20027;-71
2021/05/05 00:34:24;;;;;;;8.05;1.98;;;;;;;14.97;47.57;93542.31;5123883;27;20070;-71
2021/05/05 00:36:49;;;;;;;6.75;2.25;;;;;;;15.00;47.46;93545.06;5123423;27;20023;-71
2021/05/05 00:39:15;;;;;;;5.75;1.90;;;;;;;15.02;48.18;93537.47;5131907;27;20512;-71
2021/05/05 00:41:40;;;;;;;5.25;1.92;;;;;;;14.98;48.00;93536.59;5126299;27;20050;-71
2021/05/05 00:44:06;;;;;;;7.65;2.47;;;;;;;14.97;48.34;93539.63;5123235;27;20096;-71
2021/05/05 00:46:31;;;;;;;6.28;2.00;;;;;;;14.92;48.85;93531.81;5129556;27;20087;-71
2021/05/05 00:48:57;;;;;;;4.80;2.08;;;;;;;14.95;49.39;93521.19;5133641;27;20046;-71
2021/05/05 00:51:22;;;;;;;5.45;1.67;;;;;;;14.93;49.08;93525.34;5121746;27;20168;-71
2021/05/05 00:53:48;;;;;;;5.75;2.05;;;;;;;14.91;49.49;93524.91;5125655;27;20027;-71
2021/05/05 00:56:14;;;;;;;4.03;2.10;;;;;;;14.90;49.13;93524.13;5133262;27;20019;-71
2021/05/05 00:58:39;;;;;;;6.90;2.00;;;;;;;14.89;48.57;93514.53;5120196;27;20049;-72
2021/05/05 01:01:05;;;;;;;4.72;2.40;;;;;;;14.90;48.58;93521.47;5130117;27;20027;-71
2021/05/05 01:03:32;;;;;;;5.07;2.55;;;;;;;14.90;48.29;93516.09;5118360;27;20467;-71
2021/05/05 01:05:58;;;;;;;4.97;2.13;;;;;;;14.87;48.36;93508.72;5133725;27;20015;-71
2021/05/05 01:08:24;;;;;;;11.50;2.53;;;;;;;14.87;48.75;93503.34;5133566;27;20027;-71
2021/05/05 01:10:50;;;;;;;5.75;1.95;;;;;;;14.86;48.49;93509.88;5130161;27;20031;-71
2021/05/05 01:13:16;;;;;;;5.97;2.45;;;;;;;14.85;48.79;93508.28;5123990;27;20096;-72
2021/05/05 01:15:42;;;;;;;3.83;2.22;;;;;;;14.81;48.73;93504.75;5128851;27;20098;-72
2021/05/05 01:18:08;;;;;;;6.30;2.78;;;;;;;14.84;48.86;93504.84;5127732;27;20042;-71
2021/05/05 01:20:33;;;;;;;4.43;2.17;;;;;;;14.87;48.85;93500.66;5131237;27;20029;-71
2021/05/05 01:22:59;;;;;;;3.92;1.92;;;;;;;14.86;48.92;93504.50;5126600;27;20448;-71
2021/05/05 01:25:25;;;;;;;4.75;2.40;;;;;;;14.76;49.16;93494.28;5132458;27;20110;-71
2021/05/05 01:27:50;;;;;;;4.90;2.00;;;;;;;14.81;49.06;93502.06;5120833;27;20482;-71
2021/05/05 01:30:19;;;;;;;6.65;2.47;;;;;;;14.71;49.48;93491.88;5131812;27;20088;-71
2021/05/05 01:32:47;;;;;;;3.72;2.42;;;;;;;14.64;49.61;93487.88;5133154;27;20157;-71
2021/05/05 01:35:13;;;;;;;11.13;2.53;;;;;;;14.62;50.03;93482.09;5132917;27;20512;-71
2021/05/05 01:37:41;;;;;;;4.80;2.55;;;;;;;14.61;49.83;93491.28;5129692;27;20034;-71
2021/05/05 01:40:11;;;;;;;7.13;2.42;;;;;;;14.53;50.56;93502.94;5126756;27;20443;-71
2021/05/05 01:42:36;;;;;;;6.38;2.10;;;;;;;14.50;50.58;93495.56;5126024;27;20548;-71
2021/05/05 01:45:03;;;;;;;4.85;2.20;;;;;;;14.45;50.98;93487.78;5132855;27;20058;-70
2021/05/05 01:47:28;;;;;;;6.03;2.63;;;;;;;14.43;51.65;93493.50;5125498;27;20038;-71
2021/05/05 01:49:54;;;;;;;15.85;2.38;;;;;;;14.43;51.38;93490.00;5118100;27;20047;-71
2021/05/05 01:52:20;;;;;;;3.50;2.53;;;;;;;14.42;51.91;93491.16;5123868;27;20028;-71
2021/05/05 01:54:45;;;;;;;6.47;2.42;;;;;;;14.39;51.79;93495.31;5132664;27;20031;-71
2021/05/05 01:57:32;;;;;;;11.95;2.50;;;;;;;14.40;51.59;93496.84;5132623;27;20034;-71
2021/05/05 02:00:03;;;;;;;8.82;3.30;;;;;;;14.37;52.48;93497.56;5124391;27;20023;-71
2021/05/05 02:02:30;;;;;;;4.33;3.10;;;;;;;14.37;51.98;93508.28;5123795;27;20023;-71
2021/05/05 02:04:56;;;;;;;6.43;2.47;;;;;;;14.37;51.95;93489.50;5123747;27;20072;-71
2021/05/05 02:07:22;;;;;;;5.30;2.28;;;;;;;14.37;52.20;93492.19;5132502;27;20023;-71
2021/05/05 02:09:47;;;;;;;7.43;2.70;;;;;;;14.38;51.96;93483.00;5132043;27;20471;-71
2021/05/05 02:12:15;;;;;;;6.47;2.70;;;;;;;14.42;52.40;93491.94;5117353;27;20084;-70
2021/05/05 02:14:41;;;;;;;6.40;2.45;;;;;;;14.41;53.34;93486.91;5121386;27;20084;-71
2021/05/05 02:17:07;;;;;;;4.22;2.60;;;;;;;14.38;53.05;93483.00;5117189;27;20027;-72
2021/05/05 02:19:32;;;;;;;5.88;2.47;;;;;;;14.41;52.92;93481.53;5112691;28;20031;-71
2021/05/05 02:21:58;;;;;;;7.97;2.50;;;;;;;14.39;52.73;93465.00;5129293;27;20474;-71
2021/05/05 02:24:23;;;;;;;4.28;2.60;;;;;;;14.40;52.77;93459.31;5120326;27;20087;-71
2021/05/05 02:26:49;;;;;;;4.25;2.30;;;;;;;14.43;52.67;93473.94;5128509;27;20031;-71
2021/05/05 02:29:14;;;;;;;4.38;2.50;;;;;;;14.40;53.16;93471.94;5131332;27;20486;-71
2021/05/05 02:31:40;;;;;;;5.13;2.75;;;;;;;14.31;53.20;93468.66;5131235;27;20084;-71
2021/05/05 02:34:05;;;;;;;5.00;2.38;;;;;;;14.23;54.38;93471.16;5129057;27;20027;-71
2021/05/05 02:36:34;;;;;;;6.43;2.67;;;;;;;14.18;54.14;93476.78;5127681;27;20031;-71
2021/05/05 02:39:02;;;;;;;6.05;2.90;;;;;;;14.16;53.98;93475.56;5111850;28;20047;-71
2021/05/05 02:41:28;;;;;;;7.10;2.55;;;;;;;14.13;54.32;93474.38;5120018;27;20112;-71
2021/05/05 02:43:53;;;;;;;8.90;2.90;;;;;;;14.13;54.49;93462.88;5127518;27;20451;-71
2021/05/05 02:46:19;;;;;;;9.13;2.65;;;;;;;14.10;55.54;93460.88;5122648;27;20106;-71
2021/05/05 02:48:44;;;;;;;5.13;2.92;;;;;;;14.09;55.19;93470.81;5124936;27;20040;-71
2021/05/05 02:51:10;;;;;;;12.52;3.55;;;;;;;14.06;55.54;93471.47;5125972;27;20081;-71
2021/05/05 02:53:35;;;;;;;6.40;2.80;;;;;;;14.07;55.63;93467.69;5120019;27;20039;-71
2021/05/05 02:56:01;;;;;;;7.53;2.92;;;;;;;13.99;55.55;93471.31;5130870;27;20023;-71
2021/05/05 02:58:28;;;;;;;6.95;3.38;;;;;;;13.99;56.07;93464.06;5127907;27;20062;-71
2021/05/05 03:00:53;;;;;;;6.70;3.72;;;;;;;13.94;55.92;93474.22;5127213;27;20482;-71
2021/05/05 03:03:18;;;;;;;7.47;3.78;;;;;;;13.90;56.63;93468.81;5131413;27;20019;-71
2021/05/05 03:05:44;;;;;;;18.83;4.57;;;;;;;13.84;56.43;93468.28;5128210;27;20034;-71
2021/05/05 03:08:09;;;;;;;6.30;3.13;;;;;;;13.81;56.04;93466.25;5129908;27;20394;-71
2021/05/05 03:10:35;;;;;;;5.57;2.92;;;;;;;13.80;56.46;93466.63;5127613;27;20107;-71
2021/05/05 03:13:01;;;;;;;5.78;3.33;;;;;;;13.73;56.40;93467.19;5116232;27;20027;-71
2021/05/05 03:15:26;;;;;;;7.55;3.22;;;;;;;13.64;56.69;93461.22;5126792;27;20478;-71
2021/05/05 03:17:52;;;;;;;7.68;3.30;;;;;;;13.57;57.03;93461.78;5130834;27;20035;-70
2021/05/05 03:20:17;;;;;;;9.88;3.30;;;;;;;13.51;57.30;93468.50;5117302;27;20023;-71
2021/05/05 03:22:42;;;;;;;10.48;3.42;;;;;;;13.42;57.49;93465.97;5128797;27;20088;-71
2021/05/05 03:25:09;;;;;;;5.55;2.90;;;;;;;13.36;57.66;93475.38;5128231;27;20023;-71
2021/05/05 03:27:35;;;;;;;8.02;3.25;;;;;;;13.24;58.09;93470.78;5123700;27;20027;-71
2021/05/05 03:30:00;;;;;;;5.38;3.33;;;;;;;13.16;58.65;93479.72;5131162;27;20155;-71
2021/05/05 03:32:26;;;;;;;9.00;3.47;;;;;;;13.08;59.04;93477.19;5120683;27;20031;-71
2021/05/05 03:34:51;;;;;;;9.45;3.38;;;;;;;13.01;59.20;93473.19;5119928;27;20486;-71
2021/05/05 03:37:17;;;;;;;10.55;4.03;;;;;;;12.90;59.85;93468.63;5128741;27;20030;-70
2021/05/05 03:39:42;;;;;;;9.23;3.65;;;;;;;12.87;59.56;93480.03;5130631;27;20091;-71
2021/05/05 03:42:07;;;;;;;8.02;3.92;;;;;;;12.86;59.79;93481.91;5130695;27;20054;-70
2021/05/05 03:44:33;;;;;;;5.43;3.42;;;;;;;12.86;59.70;93481.91;5121366;27;20035;-71
2021/05/05 03:46:58;;;;;;;8.55;3.88;;;;;;;12.89;59.75;93485.81;5129559;27;20076;-71
2021/05/05 03:49:24;;;;;;;11.52;4.22;;;;;;;12.98;59.67;93479.22;5130633;27;20047;-71
2021/05/05 03:51:49;;;;;;;6.38;3.40;;;;;;;13.07;59.75;93473.75;5126161;27;20495;-71
2021/05/05 03:54:16;;;;;;;7.22;4.18;;;;;;;13.13;59.94;93479.66;5116328;27;20058;-71
2021/05/05 03:56:42;;;;;;;8.18;4.05;;;;;;;13.16;59.84;93484.31;5128869;27;20022;-71
2021/05/05 03:59:07;;;;;;;8.07;4.03;;;;;;;13.15;59.45;93482.78;5129438;28;20026;-70
2021/05/05 04:01:33;;;;;;;11.18;3.80;;;;;;;13.17;59.83;93483.22;5130408;28;20512;-71
2021/05/05 04:03:58;;;;;;;7.90;3.67;;;;;;;13.17;59.52;93493.91;5129917;27;20041;-71
2021/05/05 04:06:23;;;;;;;5.63;3.40;;;;;;;13.23;59.17;93489.88;5130038;28;20030;-71
2021/05/05 04:08:49;;;;;;;6.82;3.05;;;;;;;13.30;59.19;93492.00;5115332;27;20030;-71
2021/05/05 04:11:14;;;;;;;6.63;3.88;;;;;;;13.34;60.17;93498.25;5118449;28;20027;-71
2021/05/05 04:13:40;;;;;;;15.32;3.95;;;;;;;13.37;59.21;93498.34;5125833;28;20063;-70
2021/05/05 04:16:05;;;;;;;13.40;3.78;;;;;;;13.39;59.87;93493.44;5118688;27;20088;-70
2021/05/05 04:18:31;;;;;;;7.60;4.00;;;;;;;13.47;59.63;93498.97;5118291;27;20479;-70
2021/05/05 04:21:01;;;;;;;8.85;4.13;;;;;;;13.55;59.63;93501.50;5126502;28;20058;-71
2021/05/05 04:23:26;;;;;;;7.95;3.92;;;;;;;13.64;59.04;93488.00;5126471;28;20027;-71
2021/05/05 04:25:52;;;;;;;21.98;5.20;;;;;;;13.68;58.59;93491.56;5130340;28;20506;-70
2021/05/05 04:28:17;;;;;;;10.60;4.43;;;;;;;13.69;58.71;93495.00;5123062;27;20412;-71
2021/05/05 04:30:43;;;;;;;11.40;4.40;;;;;;;13.69;58.47;93503.03;5115470;27;20029;-70
2021/05/05 04:33:09;;;;;;;9.77;4.38;;;;;;;13.67;59.08;93495.34;5120800;28;20027;-70
2021/05/05 04:35:34;;;;;;;11.30;4.47;;;;;;;13.72;58.80;93495.09;5125772;27;20054;-71
2021/05/05 04:38:00;;;;;;;17.40;4.45;;;;;;;13.76;58.72;93495.97;5128831;27;20038;-71
2021/05/05 04:40:25;;;;;;;9.77;4.93;;;;;;;13.73;58.83;93485.94;5129513;28;20023;-71
2021/05/05 04:42:50;;;;;;;9.73;4.78;;;;;;;13.71;59.14;93482.06;5113443;28;20031;-71
2021/05/05 04:45:16;;;;;;;7.95;4.63;;;;;;;13.74;58.53;93482.16;5122028;28;20111;-71
2021/05/05 04:47:41;;;;;;;9.20;4.40;;;;;;;13.69;58.36;93489.66;5118176;27;20031;-71
2021/05/05 04:50:09;;;;;;;12.70;4.70;;;;;;;13.67;59.49;93499.94;5127741;28;20039;-71
2021/05/05 04:52:35;;;;;;;11.43;5.03;;;;;;;13.80;59.51;93496.84;5126136;28;20035;-70
2021/05/05 04:55:01;;;;;;;17.20;5.30;;;;;;;13.91;58.98;93504.41;5114761;28;20031;-71
2021/05/05 04:57:26;;;;;;;13.02;5.35;;;;;;;14.01;58.37;93511.94;5125955;28;20126;-72
2021/05/05 04:59:51;;;;;;;9.23;5.38;;;;;;;14.05;58.28;93508.22;5129007;28;20029;-72
2021/05/05 05:02:17;;;;;;;12.10;5.72;;;;;;;14.15;58.40;93509.63;5128825;27;20471;-72
2021/05/05 05:04:44;;;;;;;13.13;5.68;;;;;;;14.23;58.21;93508.69;5131489;27;20023;-72
2021/05/05 05:07:09;;;;;;;10.48;5.68;;;;;;;14.33;58.13;93503.94;5134239;27;20029;-72
2021/05/05 05:09:34;;;;;;;11.02;5.18;;;;;;;14.43;57.90;93506.91;5132688;27;20425;-72
2021/05/05 05:12:01;;;;;;;9.43;5.50;;;;;;;14.50;57.65;93500.94;5134004;27;20038;-72
2021/05/05 05:14:26;;;;;;;13.48;5.65;;;;;;;14.58;57.42;93494.63;5134487;27;20030;-72
2021/05/05 05:16:52;;;;;;;10.70;6.07;;;;;;;14.66;57.17;93500.97;5132525;27;20406;-72
2021/05/05 05:19:17;;;;;;;15.48;7.13;;;;;;;14.67;56.92;93499.81;5132853;27;20026;-72
2021/05/05 05:21:43;;;;;;;12.57;6.43;;;;;;;14.58;56.84;93500.00;5133900;27;20031;-72
2021/05/05 05:24:09;;;;;;;17.08;6.82;;;;;;;14.43;57.14;93488.13;5133872;27;20045;-72
2021/05/05 05:26:34;;;;;;;16.15;6.80;;;;;;;14.54;57.42;93485.69;5132379;27;20023;-72
2021/05/05 05:29:03;;;;;;;16.67;6.63;;;;;;;14.62;57.45;93484.00;5113988;28;20054;-71
2021/05/05 05:31:29;;;;;;;12.43;6.68;;;;;;;14.62;57.53;93489.38;5125680;27;20031;-71
2021/05/05 05:33:54;;;;;;;12.02;7.00;;;;;;;14.77;57.21;93493.94;5127026;27;20023;-70
2021/05/05 05:36:21;;;;;;;11.30;7.28;;;;;;;14.88;56.69;93494.19;5126375;27;20046;-71
2021/05/05 05:38:46;;;;;;;14.73;7.88;;;;;;;14.83;56.73;93505.19;5127950;27;20027;-71
2021/05/05 05:41:12;;;;;;;13.73;7.28;;;;;;;14.77;56.71;93517.31;5121097;27;20026;-70
2021/05/05 05:43:38;;;;;;;18.25;8.55;;;;;;;14.69;57.00;93524.41;5118060;27;20559;-71
2021/05/05 05:46:03;;;;;;;16.63;8.55;;;;;;;14.67;57.19;93525.88;5126834;27;20019;-71
2021/05/05 05:48:29;;;;;;;15.52;8.50;;;;;;;14.63;57.10;93528.47;5121189;27;20051;-71
2021/05/05 05:50:55;;;;;;;21.70;7.75;;;;;;;14.61;58.02;93533.38;5130677;27;20034;-71
2021/05/05 05:53:21;;;;;;;18.50;7.50;;;;;;;14.56;57.71;93539.78;5130561;27;20023;-70
2021/05/05 05:55:46;;;;;;;13.02;7.13;;;;;;;14.56;58.32;93545.16;5129624;27;20023;-71
2021/05/05 05:58:12;;;;;;;13.25;7.88;;;;;;;14.45;58.69;93539.50;5128405;27;20027;-71
2021/05/05 06:00:38;;;;;;;15.40;8.60;;;;;;;14.35;58.49;93533.84;5122689;27;20035;-71
2021/05/05 06:03:06;;;;;;;18.83;7.53;;;;;;;14.28;58.88;93539.81;5127529;27;20031;-71
2021/05/05 06:05:34;;;;;;;12.10;7.50;;;;;;;14.29;59.10;93540.59;5129627;27;20031;-71
2021/05/05 06:08:00;;;;;;;13.23;7.70;;;;;;;14.26;58.99;93542.06;5123594;27;20027;-71
2021/05/05 06:10:27;;;;;;;17.02;8.82;;;;;;;14.27;59.39;93540.16;5132293;27;20027;-70
2021/05/05 06:12:52;;;;;;;16.02;9.05;;;;;;;14.30;58.78;93532.22;5115475;27;20107;-71
2021/05/05 06:15:18;;;;;;;17.52;9.50;;;;;;;14.40;58.51;93522.91;5128516;27;20102;-72
2021/05/05 06:17:43;;;;;;;17.80;9.77;;;;;;;14.49;57.65;93534.25;5131555;27;20030;-70
2021/05/05 06:20:09;;;;;;;21.60;10.02;;;;;;;14.55;57.80;93522.13;5126135;27;20058;-71
2021/05/05 06:22:35;;;;;;;22.85;11.73;;;;;;;14.56;57.27;93506.84;5120269;27;20055;-71
2021/05/05 06:25:03;;;;;;;17.20;10.90;;;;;;;14.56;57.70;93521.03;5124526;27;20112;-71
2021/05/05 06:27:28;;;;;;;15.80;9.35;;;;;;;14.70;57.80;93514.47;5120546;27;20027;-72
2021/05/05 06:29:53;;;;;;;23.70;11.13;;;;;;;14.76;58.06;93513.84;5120221;27;20454;-71
2021/05/05 06:32:19;;;;;;;23.17;11.20;;;;;;;14.89;57.72;93522.56;5131665;27;20038;-71
2021/05/05 06:34:44;;;;;;;18.13;10.75;;;;;;;15.13;56.57;93518.13;5140000;27;20451;-71
2021/05/05 06:37:10;;;;;;;22.35;11.13;;;;;;;15.28;56.07;93522.66;5126269;27;20085;-71
2021/05/05 06:39:35;;;;;;;22.23;11.10;;;;;;;15.44;55.98;93514.56;5125222;27;20088;-71
2021/05/05 06:42:01;;;;;;;28.17;10.55;;;;;;;15.58;55.11;93514.88;5123759;27;20207;-71
2021/05/05 06:44:26;;;;;;;16.08;9.70;;;;;;;15.74;54.25;93520.22;5127710;27;20039;-72
2021/05/05 06:46:55;;;;;;;18.40;9.43;;;;;;;15.88;53.88;93513.56;5123985;27;20406;-71
2021/05/05 06:49:24;;;;;;;13.30;8.88;;;;;;;16.00;53.15;93506.13;5131015;27;20043;-71
2021/05/05 06:51:50;;;;;;;13.15;9.05;;;;;;;16.09;52.09;93505.13;5128062;27;20115;-71
2021/05/05 06:54:16;;;;;;;21.48;9.27;;;;;;;16.17;52.17;93493.38;5127049;27;20142;-71
2021/05/05 06:56:41;;;;;;;16.70;9.35;;;;;;;16.27;51.89;93490.09;5128870;27;20433;-71
2021/05/05 06:59:07;;;;;;;15.90;8.43;;;;;;;16.35;51.70;93485.63;5123048;27;20031;-71
2021/05/05 07:01:35;;;;;;;14.27;8.18;;;;;;;16.40;51.50;93488.78;5127701;27;20028;-71
2021/05/05 07:04:01;;;;;;;15.55;8.25;;;;;;;16.51;51.44;93482.81;5128266;27;20019;-71
2021/05/05 07:06:26;;;;;;;11.98;7.75;;;;;;;16.60;50.92;93478.72;5129497;27;20049;-71
2021/05/05 07:08:52;;;;;;;13.85;6.65;;;;;;;16.67;51.47;93474.59;5122571;27;20106;-71
2021/05/05 07:11:17;;;;;;;15.88;6.15;;;;;;;16.76;51.73;93475.91;5122492;27;20019;-71
2021/05/05 07:13:42;;;;;;;20.10;5.60;;;;;;;16.80;51.39;93481.34;5120830;27;20023;-71
2021/05/05 07:16:08;;;;;;;16.63;5.47;;;;;;;16.81;50.71;93480.22;5130966;27;20343;-71
2021/05/05 07:18:33;;;;;;;12.98;5.80;;;;;;;16.74;50.63;93480.09;5123638;27;20011;-71
2021/05/05 07:20:58;;;;;;;11.75;5.22;;;;;;;16.79;50.43;93477.88;5119091;27;20019;-72
2021/05/05 07:23:27;;;;;;;14.60;5.72;;;;;;;16.89;49.93;93492.66;5116404;27;20103;-72
2021/05/05 07:25:52;;;;;;;13.95;5.70;;;;;;;16.79;49.82;93495.94;5127042;27;20022;-70
2021/05/05 07:28:18;;;;;;;14.18;5.32;;;;;;;16.78;50.38;93480.94;5127302;27;20027;-71
2021/05/05 07:30:44;;;;;;;13.95;5.50;;;;;;;16.95;50.24;93483.13;5130579;27;20103;-71
2021/05/05 07:33:11;;;;;;;9.68;5.70;;;;;;;17.14;50.44;93486.88;5130836;27;20344;-71
2021/05/05 07:35:37;;;;;;;9.65;5.68;;;;;;;17.22;48.68;93483.16;5121931;27;20490;-71
2021/05/05 07:50:50;;;;;;;15.45;4.60;;;;;;;17.62;47.55;93463.63;5123039;27;20031;-71
2021/05/05 07:53:15;;;;;;;10.18;4.72;;;;;;;17.78;47.74;93460.75;5117324;27;20458;-71
2021/05/05 07:55:41;;;;;;;11.98;5.78;;;;;;;17.94;47.21;93463.25;5126739;27;20071;-71
2021/05/05 07:58:06;;;;;;;14.35;4.80;;;;;;;17.98;46.83;93471.41;5126609;27;20034;-71
2021/05/05 08:00:32;;;;;;;15.77;4.28;;;;;;;17.96;46.20;93473.69;5124183;27;20097;-71
2021/05/05 08:02:58;;;;;;;11.50;4.20;;;;;;;18.01;45.74;93463.34;5116316;28;20034;-71
2021/05/05 08:05:23;;;;;;;9.07;4.10;;;;;;;18.14;45.53;93471.19;5131117;28;20110;-71
2021/05/05 08:07:53;;;;;;;18.08;5.35;;;;;;;18.30;45.35;93465.53;5117679;27;20467;-70
2021/05/05 08:10:18;;;;;;;9.38;4.93;;;;;;;18.40;45.30;93478.38;5130259;27;20406;-70
2021/05/05 08:12:44;;;;;;;9.48;3.70;;;;;;;18.47;44.50;93464.94;5129818;28;20023;-70
2021/05/05 08:15:10;;;;;;;9.18;3.85;;;;;;;18.55;44.28;93463.84;5124480;28;20020;-70
2021/05/05 08:17:35;;;;;;;7.50;3.92;;;;;;;18.64;45.06;93461.63;5123876;27;20027;-70
2021/05/05 08:20:01;;;;;;;20.52;4.38;;;;;;;18.54;45.42;93456.91;5126236;28;20474;-70
2021/05/05 08:22:26;;;;;;;16.00;4.38;;;;;;;18.59;45.57;93451.16;5119356;28;20041;-70
2021/05/05 08:24:52;;;;;;;14.85;3.92;;;;;;;18.76;44.38;93438.94;5125123;28;20022;-70
2021/05/05 08:27:17;;;;;;;7.72;4.10;;;;;;;18.65;44.06;93433.47;5129417;27;20447;-70
2021/05/05 08:29:43;;;;;;;12.65;4.32;;;;;;;18.59;44.35;93440.34;5116187;27;20035;-70
2021/05/05 08:32:08;;;;;;;8.63;3.30;;;;;;;18.68;43.82;93423.06;5121853;27;20015;-71
2021/05/05 08:34:34;;;;;;;14.68;3.88;;;;;;;18.88;42.97;93432.50;5111667;28;20055;-70
2021/05/05 08:37:00;;;;;;;15.65;3.95;;;;;;;18.98;41.94;93433.72;5128338;28;20019;-71
2021/05/05 08:39:26;;;;;;;13.32;3.42;;;;;;;19.21;41.96;93434.25;5121080;27;20049;-71
2021/05/05 08:41:52;;;;;;;6.78;3.05;;;;;;;19.48;39.98;93422.41;5125660;27;20047;-71
2021/05/05 08:44:19;;;;;;;11.95;3.92;;;;;;;19.58;40.45;93437.88;5133754;27;20031;-70
2021/05/05 08:46:46;;;;;;;6.43;3.20;;;;;;;19.73;40.52;93431.41;5126539;27;20027;-70
2021/05/05 08:49:13;;;;;;;18.40;3.40;;;;;;;19.88;40.43;93437.63;5131997;27;20422;-70
2021/05/05 08:51:38;;;;;;;11.65;3.80;;;;;;;20.14;40.75;93433.06;5126578;27;20105;-70
2021/05/05 08:54:06;;;;;;;14.75;4.40;;;;;;;20.36;40.59;93439.28;5124633;27;20157;-71
2021/05/05 08:56:35;;;;;;;6.30;3.83;;;;;;;20.56;39.83;93445.13;5127658;27;20037;-71
2021/05/05 08:59:07;;;;;;;9.48;3.78;;;;;;;20.77;39.41;93442.41;5132744;27;20023;-70
2021/05/05 09:01:34;;;;;;;16.10;4.13;;;;;;;20.90;38.84;93442.78;5126638;27;20537;-70
2021/05/05 09:04:00;;;;;;;6.82;3.60;;;;;;;20.91;37.47;93436.22;5130150;27;20411;-70
2021/05/05 09:06:47;;;;;;;8.90;3.28;;;;;;;21.06;36.81;93425.38;5129831;27;20019;-71
2021/05/05 09:09:30;;;;;;;6.20;3.05;;;;;;;21.10;36.03;93418.00;5131224;27;20033;-70
2021/05/05 09:11:55;;;;;;;8.77;3.63;;;;;;;21.23;37.20;93424.56;5122776;27;20040;-70
2021/05/05 09:14:21;;;;;;;8.05;3.45;;;;;;;21.33;37.08;93428.38;5129466;27;20581;-71
2021/05/05 09:16:47;;;;;;;8.23;3.40;;;;;;;21.41;37.46;93438.03;5124847;27;20090;-71
2021/05/05 09:19:12;;;;;;;9.75;3.35;;;;;;;21.36;37.55;93433.81;5122781;27;20115;-71
2021/05/05 09:21:46;;;;;;;15.32;4.00;;;;;;;21.46;37.30;93434.97;5128809;27;20034;-70
2021/05/05 09:24:27;;;;;;;10.20;4.00;;;;;;;21.50;37.05;93432.25;5129556;27;20099;-70
2021/05/05 09:27:14;;;;;;;8.13;3.35;;;;;;;21.53;37.28;93426.03;5131790;27;20091;-71
2021/05/05 09:29:47;;;;;;;11.23;3.20;;;;;;;21.57;36.88;93419.44;5121309;27;20077;-71
2021/05/05 09:32:21;;;;;;;7.00;3.35;;;;;;;21.56;36.56;93425.25;5133054;27;20409;-71
2021/05/05 09:35:01;;;;;;;8.32;3.92;;;;;;;21.54;36.92;93422.94;5121529;27;20020;-70
2021/05/05 09:37:27;;;;;;;8.07;3.40;;;;;;;21.57;37.40;93418.66;5129275;27;20043;-70
2021/05/05 09:40:11;;;;;;;9.50;3.30;;;;;;;21.53;36.91;93407.06;5131419;27;20042;-70
2021/05/05 09:42:38;;;;;;;8.73;3.70;;;;;;;21.56;36.69;93409.00;5123246;27;20026;-70
2021/05/05 09:45:09;;;;;;;10.98;3.58;;;;;;;21.52;36.87;93403.59;5124141;27;20062;-71
2021/05/05 09:47:57;;;;;;;12.75;3.10;;;;;;;21.47;37.15;93411.34;5123278;27;20479;-71
2021/05/05 09:50:44;;;;;;;8.98;3.03;;;;;;;21.42;36.53;93413.28;5118880;27;20027;-71
2021/05/05 09:53:24;;;;;;;13.13;3.60;;;;;;;21.35;36.35;93402.47;5131431;27;20023;-70
2021/05/05 09:55:59;;;;;;;12.02;3.38;;;;;;;21.26;36.35;93399.38;5117576;27;20028;-70
2021/05/05 09:58:41;;;;;;;10.70;3.35;;;;;;;21.20;36.85;93407.13;5121989;27;20026;-71
2021/05/05 10:01:11;;;;;;;13.35;3.65;;;;;;;21.10;37.18;93405.22;5132117;27;20072;-70
2021/05/05 10:03:44;;;;;;;9.02;3.95;;;;;;;21.09;37.58;93392.84;5132106;27;20470;-70
2021/05/05 10:06:32;;;;;;;14.20;3.67;;;;;;;20.99;37.41;93405.25;5120197;27;20098;-70
2021/05/05 10:09:08;;;;;;;9.30;2.85;;;;;;;20.93;37.76;93401.38;5129153;27;20030;-71
2021/05/05 10:11:36;;;;;;;11.38;3.63;;;;;;;20.86;38.21;93395.97;5131258;27;20394;-71
2021/05/05 10:14:04;;;;;;;13.40;3.50;;;;;;;20.76;38.16;93384.00;5128688;27;20034;-70
2021/05/05 10:16:36;;;;;;;8.98;3.80;;;;;;;20.75;38.39;93385.16;5130680;27;20447;-70
2021/05/05 10:19:06;;;;;;;5.97;3.40;;;;;;;20.80;38.73;93381.28;5130136;27;20052;-71
2021/05/05 10:21:34;;;;;;;10.40;3.40;;;;;;;20.83;38.58;93383.22;5130502;27;20035;-70
2021/05/05 10:24:00;;;;;;;7.05;3.20;;;;;;;20.86;38.69;93379.72;5124673;27;20088;-70
2021/05/05 10:26:27;;;;;;;12.98;3.50;;;;;;;20.92;38.53;93383.56;5127632;27;20041;-70
2021/05/05 10:28:53;;;;;;;10.35;3.00;;;;;;;21.00;38.07;93382.44;5128872;27;20050;-70
2021/05/05 10:31:23;;;;;;;6.80;3.50;;;;;;;21.11;38.14;93376.22;5127686;27;20106;-70
2021/05/05 10:33:51;;;;;;;4.95;2.90;;;;;;;21.25;37.68;93376.16;5142095;27;20096;-70
2021/05/05 10:36:35;;;;;;;11.10;3.20;;;;;;;21.40;37.61;93372.22;5131566;27;20557;-70
2021/05/05 10:39:29;;;;;;;10.35;3.08;;;;;;;21.62;36.82;93366.75;5131608;27;20023;-70
2021/05/05 10:42:03;;;;;;;5.60;3.05;;;;;;;;;;5119429;27;20059;-70
2021/05/05 10:45:01;;;;;;;11.00;2.90;;;;;;;22.14;37.01;93371.47;5126819;27;20027;-70
2021/05/05 10:47:34;;;;;;;9.00;3.05;;;;;;;22.28;36.97;93359.78;5093739;27;20062;-70
2021/05/05 10:50:08;;;;;;;8.30;3.88;;;;;;;22.37;35.66;93357.41;5131209;27;20104;-70
2021/05/05 10:52:34;;;;;;;6.95;2.92;;;;;;;22.38;34.54;93348.81;5130052;27;20031;-70
2021/05/05 10:55:00;;;;;;;5.45;2.83;;;;;;;22.56;34.17;93351.41;5120619;27;20035;-70
2021/05/05 10:57:26;;;;;;;9.57;3.28;;;;;;;22.73;33.83;93357.06;5127841;27;20483;-70
2021/05/05 10:59:58;;;;;;;9.77;3.10;;;;;;;22.82;33.82;93338.38;5131266;27;20475;-70
2021/05/05 11:02:38;;;;;;;10.77;2.97;;;;;;;23.02;33.08;93342.06;5131320;27;20167;-70
2021/05/05 11:05:24;;;;;;;6.68;2.78;;;;;;;23.14;32.69;93339.97;5133566;27;20031;-70
2021/05/05 11:07:57;;;;;;;8.90;3.05;;;;;;;23.33;33.37;93328.50;5115648;27;20042;-70
2021/05/05 11:10:50;;;;;;;8.10;3.00;;;;;;;23.49;33.09;93324.41;5116832;27;20023;-70
2021/05/05 11:13:19;;;;;;;6.60;3.03;;;;;;;23.58;32.61;93333.63;5126402;27;20030;-70
2021/05/05 11:15:44;;;;;;;9.60;2.25;;;;;;;23.63;31.06;93340.59;5119401;27;20028;-70
2021/05/05 11:18:35;;;;;;;6.43;2.92;;;;;;;23.64;31.10;93337.44;5121141;27;20027;-70
2021/05/05 11:21:26;;;;;;;5.47;2.10;;;;;;;23.71;31.75;93336.59;5123277;27;20046;-70
2021/05/05 11:23:52;;;;;;;11.88;2.50;;;;;;;23.89;31.44;93330.91;5125136;27;20036;-70
2021/05/05 11:26:34;;;;;;;7.45;2.22;;;;;;;23.98;30.52;93319.53;5119871;27;20050;-70
2021/05/05 11:29:08;;;;;;;6.25;2.33;;;;;;;24.13;31.09;93320.06;5126784;27;20027;-70
2021/05/05 11:31:49;;;;;;;8.90;2.30;;;;;;;24.29;29.60;93316.72;5128138;27;20031;-70
2021/05/05 11:34:17;;;;;;;6.35;2.50;;;;;;;24.40;29.92;93306.41;5120080;27;20083;-71
2021/05/05 11:37:04;;;;;;;7.63;2.80;;;;;;;24.31;29.41;93314.34;5117139;27;20048;-70
2021/05/05 11:39:33;;;;;;;6.00;2.63;;;;;;;24.54;28.13;93308.16;5137370;27;20038;-70
2021/05/05 11:42:11;;;;;;;8.30;1.95;;;;;;;24.42;27.34;93312.22;5127407;27;20019;-70
2021/05/05 11:44:36;;;;;;;6.43;1.98;;;;;;;24.54;27.45;93295.28;5121251;27;20509;-70